Terminal Aerodrome Forecast
Issued by NWS Jacksonville, FL

Home | Current Version | Previous Version | Text Only | Print | Product List | Glossary On
Versions: 1 2 3 4 5 6 7 8 9 10 11 12 13 14
497
FTUS42 KJAX 242320
TAFGNV
TAF
KGNV 242320Z 2500/2524 10008KT P6SM SCT250
     FM250200 VRB03KT P6SM FEW250
     FM251500 11010KT P6SM SCT060=

USA.gov is the U.S. government's official web portal to all federal, state and local government web resources and services.